Time;durP1;ratioP1;P1;durP2;ratioP2;P2;SDS_P1;SDS_P2;PMS_P1;PMS_P2;Temp;Humidity;BMP_temperature;BMP_pressure;BME280_temperature;BME280_humidity;BME280_pressure;Samples;Min_cycle;Max_cycle;Signal;HPM_P1;HPM_P2
2023/10/22 00:00:48;;;;;;;2.13;1.40;;;15.60;93.30;;;15.72;57.17;97705.44;4967363;28;123873;-80
2023/10/22 00:03:14;;;;;;;1.90;1.30;;;15.50;93.30;;;15.68;56.94;97710.94;4971511;28;114158;-83
2023/10/22 00:05:41;;;;;;;2.03;1.37;;;15.50;93.40;;;15.68;57.20;97712.88;4970224;28;113439;-84
2023/10/22 00:08:08;;;;;;;2.10;1.20;;;15.50;93.40;;;15.67;57.61;97714.06;4970073;28;124083;-84
2023/10/22 00:10:39;;;;;;;2.20;1.27;;;15.50;93.50;;;15.66;57.42;97718.00;4966439;28;125676;-84
2023/10/22 00:13:06;;;;;;;2.63;1.50;;;15.50;93.50;;;15.65;57.35;97722.78;4966582;28;115546;-81
2023/10/22 00:15:32;;;;;;;2.33;1.57;;;15.50;93.60;;;15.64;57.36;97726.75;4966909;28;115793;-82
2023/10/22 00:17:59;;;;;;;3.10;1.50;;;15.40;93.60;;;15.63;57.41;97727.13;4967668;28;124138;-85
2023/10/22 00:20:30;;;;;;;2.23;1.50;;;15.40;93.60;;;15.63;57.43;97729.91;4967284;28;123659;-82
2023/10/22 00:22:57;;;;;;;2.00;1.70;;;17.50;94.60;;;15.60;57.33;97739.00;4962612;28;114312;-86
2023/10/22 00:25:29;;;;;;;2.70;1.47;;;15.50;93.70;;;15.56;57.56;97735.38;4957833;28;114459;-85
2023/10/22 00:28:00;;;;;;;2.97;1.60;;;15.40;93.70;;;15.50;57.50;97734.88;4948942;28;124076;-84
2023/10/22 00:30:26;;;;;;;2.93;1.67;;;15.40;93.70;;;15.46;57.50;97732.00;4957085;28;123950;-84
2023/10/22 00:32:53;;;;;;;2.17;1.20;;;15.30;93.70;;;15.43;57.83;97729.97;4954996;28;114223;-85
2023/10/22 00:35:22;;;;;;;2.17;1.60;;;15.30;93.70;;;15.40;57.83;97727.94;4979478;28;113783;-85
2023/10/22 00:37:48;;;;;;;2.03;1.60;;;15.20;93.70;;;15.39;57.81;97731.91;4950756;28;124100;-83
2023/10/22 00:40:15;;;;;;;1.90;1.60;;;15.20;93.70;;;15.38;57.79;97730.28;4959388;28;123720;-85
2023/10/22 00:42:42;;;;;;;2.33;1.50;;;15.20;93.80;;;15.38;58.00;97730.28;4958521;28;114080;-84
2023/10/22 00:45:11;;;;;;;2.50;1.60;;;16.20;94.20;;;15.36;57.85;97729.03;4950828;28;114544;-83
2023/10/22 00:47:38;;;;;;;2.10;1.47;;;15.20;93.80;;;15.31;57.81;97734.91;4959004;28;124174;-85
2023/10/22 00:50:07;;;;;;;2.63;1.47;;;15.20;93.90;;;15.26;58.08;97744.38;4951578;28;123870;-85
2023/10/22 00:52:34;;;;;;;2.80;1.90;;;15.10;93.80;;;15.20;57.95;97745.84;4967109;28;114462;-86
2023/10/22 00:55:03;;;;;;;2.40;1.53;;;15.10;93.80;;;15.15;58.07;97749.75;4956586;28;113762;-84
2023/10/22 00:57:33;;;;;;;1.63;1.30;;;15.00;93.90;;;15.12;58.11;97747.69;4943973;28;123459;-85
2023/10/22 00:59:59;;;;;;;1.27;1.13;;;15.00;93.90;;;15.09;58.20;97750.41;4954454;28;124023;-84
2023/10/22 01:02:31;;;;;;;1.90;1.30;;;13.10;93.10;;;15.07;58.23;97752.75;4960349;28;115847;-85
2023/10/22 01:04:58;;;;;;;2.33;1.43;;;14.90;93.90;;;15.01;58.21;97755.81;4958057;28;114904;-86
2023/10/22 01:07:30;;;;;;;3.20;1.50;;;14.90;94.00;;;14.97;58.16;97766.09;4970279;28;123984;-85
2023/10/22 01:09:56;;;;;;;1.30;1.20;;;14.90;94.00;;;14.90;58.20;97765.94;4976361;28;123944;-82
2023/10/22 01:12:22;;;;;;;2.30;1.43;;;16.20;94.60;;;14.85;58.61;97773.78;4968974;28;114465;-83
2023/10/22 01:14:52;;;;;;;1.70;1.27;;;17.00;94.90;;;14.84;58.58;97780.50;4964730;28;113053;-82
2023/10/22 01:17:21;;;;;;;2.33;1.30;;;15.10;94.20;;;14.81;58.57;97762.59;4960093;28;123677;-85
2023/10/22 01:19:47;;;;;;;2.13;1.20;;;14.70;94.10;;;14.77;58.59;97765.28;4963379;28;124789;-85
2023/10/22 01:22:13;;;;;;;2.03;1.50;;;14.70;94.10;;;14.75;58.60;97764.06;4955383;28;114396;-85
2023/10/22 01:24:42;;;;;;;1.53;1.20;;;14.60;94.10;;;14.70;58.75;97772.69;4964154;28;113680;-82
2023/10/22 01:27:14;;;;;;;2.07;1.33;;;14.60;94.10;;;14.66;58.77;97777.34;4952804;28;125245;-81
2023/10/22 01:29:40;;;;;;;2.00;1.43;;;15.50;94.50;;;14.62;58.96;97766.16;4952805;28;124104;-82
2023/10/22 01:32:07;;;;;;;3.17;1.67;;;14.50;94.20;;;14.61;59.07;97770.09;4954636;28;115416;-82
2023/10/22 01:34:36;;;;;;;2.30;1.40;;;15.10;94.50;;;14.60;58.86;97765.72;4958500;28;115135;-83
2023/10/22 01:37:02;;;;;;;1.53;1.00;;;14.50;94.30;;;14.60;59.01;97767.69;4957150;28;123668;-85
2023/10/22 01:39:32;;;;;;;1.87;1.40;;;15.00;94.50;;;14.60;58.77;97768.50;4965166;28;123791;-80
2023/10/22 01:41:58;;;;;;;3.13;1.50;;;15.50;94.80;;;14.64;58.89;97771.34;4964187;28;114798;-82
2023/10/22 01:44:24;;;;;;;2.13;1.53;;;16.30;95.10;;;14.64;58.98;97776.91;4961695;28;113909;-85
2023/10/22 01:46:52;;;;;;;1.30;1.10;;;14.40;94.30;;;14.62;58.85;97777.28;4950831;28;123758;-83
2023/10/22 01:49:18;;;;;;;1.60;1.20;;;16.80;95.40;;;14.61;58.66;97780.41;4958845;28;124728;-83
2023/10/22 01:51:44;;;;;;;2.93;1.27;;;15.00;94.50;;;14.57;58.57;97775.59;4955265;28;115240;-86
2023/10/22 01:54:11;;;;;;;1.80;1.23;;;14.30;94.20;;;14.53;58.95;97780.28;4959623;28;115002;-83
2023/10/22 01:56:40;;;;;;;7.17;1.63;;;14.70;94.50;;;14.50;58.78;97778.16;4958987;28;123913;-84
2023/10/22 01:59:06;;;;;;;2.00;1.33;;;14.50;94.40;;;14.48;58.98;97780.53;4951197;28;123699;-84
2023/10/22 02:01:34;;;;;;;5.03;1.93;;;15.60;94.90;;;14.47;58.95;97781.69;4952990;28;113322;-81
2023/10/22 02:04:01;;;;;;;2.77;1.40;;;14.30;94.20;;;14.45;58.91;97781.22;4956150;28;113260;-82
2023/10/22 02:06:27;;;;;;;1.40;1.03;;;14.50;94.40;;;14.44;58.78;97787.97;4952982;28;124442;-81
2023/10/22 02:08:54;;;;;;;2.23;1.37;;;14.30;94.60;;;14.42;58.75;97784.75;4956912;28;122863;-85
2023/10/22 02:11:21;;;;;;;1.77;1.30;;;16.70;95.30;;;14.38;58.72;97788.63;4963188;28;116681;-84
2023/10/22 02:13:47;;;;;;;1.90;1.70;;;14.60;94.40;;;14.34;58.88;97782.97;4959260;28;114339;-82
2023/10/22 02:16:14;;;;;;;2.10;1.47;;;14.20;94.20;;;14.32;58.63;97796.44;4968919;28;123851;-84
2023/10/22 02:18:41;;;;;;;3.53;1.33;;;14.20;94.30;;;14.30;58.89;97796.00;4971579;28;123569;-81
2023/10/22 02:21:07;;;;;;;1.63;1.47;;;14.60;94.50;;;14.28;58.83;97790.78;4962407;28;114033;-80
2023/10/22 02:23:34;;;;;;;6.63;1.50;;;14.10;94.30;;;14.26;58.99;97793.13;4964853;28;112724;-81
2023/10/22 02:26:00;;;;;;;1.70;1.40;;;14.90;94.60;;;14.26;58.79;97797.88;4970343;28;124056;-84
2023/10/22 02:28:27;;;;;;;1.87;1.20;;;16.60;95.40;;;14.25;58.93;97796.28;4972764;28;123684;-82
2023/10/22 02:30:53;;;;;;;1.40;1.10;;;14.10;94.30;;;14.26;58.94;97808.97;4970135;28;114064;-83
2023/10/22 02:33:20;;;;;;;1.97;1.17;;;15.60;95.00;;;14.25;58.74;97810.16;4970915;28;114005;-83
2023/10/22 02:35:46;;;;;;;1.80;1.30;;;14.10;94.30;;;14.23;58.86;97816.06;4969751;28;123976;-81
2023/10/22 02:38:18;;;;;;;1.87;1.33;;;14.10;94.30;;;14.20;58.76;97813.22;4969034;28;124255;-83
2023/10/22 02:40:49;;;;;;;2.20;1.20;;;14.00;94.30;;;14.17;58.81;97805.59;4965817;28;114842;-80
2023/10/22 02:43:20;;;;;;;1.70;1.50;;;13.90;94.30;;;14.14;58.65;97815.47;4966462;28;115155;-83
2023/10/22 02:45:55;;;;;;;2.10;1.30;;;13.90;94.30;;;14.11;58.82;97818.97;4967778;28;123870;-83
2023/10/22 02:48:23;;;;;;;1.30;1.10;;;14.50;94.70;;;14.07;58.90;97813.31;4971107;28;122717;-84
2023/10/22 02:50:51;;;;;;;1.83;1.10;;;15.20;95.00;;;14.07;59.04;97823.63;4972072;28;114294;-86
2023/10/22 02:53:17;;;;;;;2.40;1.07;;;14.40;94.60;;;14.05;59.09;97826.78;4973411;28;113869;-84
2023/10/22 02:55:43;;;;;;;2.90;1.30;;;13.90;94.50;;;14.03;59.08;97825.50;4966541;28;124113;-85
2023/10/22 02:58:11;;;;;;;2.10;1.40;;;13.80;94.50;;;14.04;59.07;97832.66;4971933;28;123605;-85
2023/10/22 03:00:38;;;;;;;2.47;1.37;;;14.90;94.90;;;14.01;59.09;97825.06;4972450;28;114354;-85
2023/10/22 03:03:04;;;;;;;1.60;1.23;;;13.80;94.50;;;13.96;59.41;97828.91;4972298;28;113344;-84
2023/10/22 03:05:36;;;;;;;1.80;1.10;;;15.80;95.40;;;13.96;59.24;97828.09;4969915;28;123424;-83
2023/10/22 03:08:05;;;;;;;2.27;1.20;;;16.40;95.60;;;13.93;59.34;97838.75;4971267;28;123551;-81
2023/10/22 03:10:36;;;;;;;3.97;1.50;;;16.20;95.60;;;13.95;59.43;97838.41;4967792;28;114387;-83
2023/10/22 03:13:04;;;;;;;3.07;1.50;;;13.70;94.60;;;13.96;59.75;97850.31;4968710;28;114143;-83
2023/10/22 03:15:31;;;;;;;3.50;1.13;;;15.50;95.60;;;13.95;59.43;97846.75;4967306;28;124086;-84
2023/10/22 03:17:57;;;;;;;1.90;1.23;;;13.70;94.70;;;13.94;59.60;97859.00;4971555;28;122781;-82
2023/10/22 03:20:24;;;;;;;5.43;1.23;;;13.70;94.70;;;13.93;59.56;97866.53;4971979;28;114079;-82
2023/10/22 03:22:51;;;;;;;1.63;1.47;;;13.70;94.70;;;13.89;59.54;97860.09;4964277;28;114095;-80
2023/10/22 03:25:21;;;;;;;2.13;1.43;;;13.70;94.70;;;13.87;59.78;97864.38;4966706;28;123941;-82
2023/10/22 03:27:48;;;;;;;1.97;1.33;;;12.20;94.20;;;13.84;59.91;97870.66;4968914;28;123893;-81
2023/10/22 03:30:14;;;;;;;3.80;1.40;;;13.60;94.80;;;13.84;59.74;97877.00;4967276;28;115017;-81
2023/10/22 03:32:41;;;;;;;3.17;1.50;;;14.90;95.60;;;13.84;60.04;97881.75;4969131;28;114130;-82
2023/10/22 03:35:08;;;;;;;2.37;1.30;;;15.00;95.70;;;13.83;60.13;97874.56;4968884;28;124484;-83
2023/10/22 03:37:37;;;;;;;3.37;1.33;;;13.60;95.10;;;13.80;60.03;97873.31;4967830;28;124676;-81
2023/10/22 03:40:07;;;;;;;1.77;1.30;;;13.60;95.10;;;13.82;60.00;97873.78;4962158;28;114289;-80
2023/10/22 03:42:33;;;;;;;2.53;1.30;;;13.60;95.10;;;13.82;60.03;97867.44;4963963;28;113947;-83
2023/10/22 03:45:00;;;;;;;2.93;1.70;;;13.60;95.20;;;13.84;60.20;97877.00;4968935;28;124146;-82
2023/10/22 03:47:27;;;;;;;4.67;1.70;;;13.70;95.30;;;13.84;60.17;97881.75;4968917;28;123830;-80
2023/10/22 03:49:54;;;;;;;1.37;1.00;;;13.60;95.20;;;13.84;60.14;97876.22;4969155;28;113650;-82
2023/10/22 03:52:20;;;;;;;2.80;1.20;;;15.00;95.80;;;13.82;59.84;97872.97;4970137;28;114323;-81
2023/10/22 03:54:47;;;;;;;1.30;1.20;;;13.60;95.10;;;13.85;60.05;97875.03;4967905;28;123994;-82
2023/10/22 03:57:13;;;;;;;2.13;1.20;;;13.50;95.20;;;13.84;60.15;97874.25;4968171;28;123987;-82
2023/10/22 03:59:40;;;;;;;4.10;1.40;;;16.00;96.40;;;13.84;60.00;97879.78;4973699;28;113935;-83
2023/10/22 04:02:06;;;;;;;2.27;1.30;;;13.50;95.20;;;13.83;60.22;97880.13;4969132;28;114592;-84
2023/10/22 04:04:33;;;;;;;3.27;1.47;;;15.20;96.00;;;13.83;60.08;97885.69;4968247;28;124199;-81
2023/10/22 04:06:59;;;;;;;6.50;1.53;;;13.60;95.30;;;13.80;60.05;97889.19;4969253;28;124073;-80
2023/10/22 04:09:29;;;;;;;1.80;1.40;;;13.50;95.30;;;13.76;60.23;97879.97;4971504;28;114754;-81
2023/10/22 04:11:56;;;;;;;3.93;1.30;;;14.70;95.80;;;13.76;60.26;97885.50;4969137;28;114174;-80
2023/10/22 04:14:22;;;;;;;2.47;1.30;;;13.50;95.70;;;13.75;60.37;97883.88;4967737;28;124211;-82
2023/10/22 04:16:50;;;;;;;2.30;1.33;;;14.90;96.00;;;13.76;60.24;97897.41;4967357;28;123781;-81
2023/10/22 04:19:17;;;;;;;2.37;1.40;;;15.60;96.30;;;13.78;60.38;97888.72;4964050;28;114683;-80
2023/10/22 04:21:44;;;;;;;1.70;1.33;;;13.50;95.30;;;13.77;60.38;97893.47;4960759;28;115067;-83
2023/10/22 04:24:10;;;;;;;1.67;1.27;;;14.30;95.70;;;13.75;60.43;97895.78;4966776;28;124090;-81
2023/10/22 04:26:37;;;;;;;1.60;1.20;;;14.00;95.50;;;13.74;60.26;97901.72;4968189;28;123675;-82
2023/10/22 04:29:03;;;;;;;2.97;1.60;;;13.50;95.30;;;13.73;60.30;97898.13;4968714;28;114711;-82
2023/10/22 04:31:36;;;;;;;2.43;1.30;;;13.50;95.30;;;13.72;60.21;97901.25;4982121;28;113058;-82
2023/10/22 04:34:05;;;;;;;2.33;1.50;;;13.50;95.20;;;13.71;60.22;97892.13;4971178;28;124450;-82
2023/10/22 04:36:34;;;;;;;3.67;1.60;;;15.40;96.10;;;13.72;60.37;97901.25;4956742;28;123527;-83
2023/10/22 04:39:00;;;;;;;3.00;1.40;;;13.50;95.30;;;13.70;60.16;97901.59;4968367;28;114825;-85
2023/10/22 04:41:27;;;;;;;2.37;1.50;;;13.50;95.50;;;13.69;60.24;97895.25;4967550;28;114197;-81
2023/10/22 04:43:53;;;;;;;1.43;1.23;;;13.40;95.30;;;13.69;60.25;97898.03;4967246;28;123198;-84
2023/10/22 04:46:22;;;;;;;2.63;1.50;;;13.40;95.30;;;13.69;60.70;97902.78;4967353;28;124081;-87
2023/10/22 04:48:51;;;;;;;4.83;1.50;;;13.40;95.30;;;13.68;60.30;97901.16;4966914;28;113931;-82
2023/10/22 04:51:18;;;;;;;4.13;1.50;;;13.40;95.30;;;13.67;60.30;97910.63;4971351;28;113383;-84
2023/10/22 04:53:44;;;;;;;2.83;2.10;;;14.60;95.90;;;13.64;60.30;97903.81;4970446;28;123943;-85
2023/10/22 04:56:11;;;;;;;2.30;1.30;;;14.70;95.90;;;13.65;60.13;97911.00;4970123;28;125682;-83
2023/10/22 04:58:37;;;;;;;2.00;1.30;;;13.40;95.30;;;13.66;60.21;97912.63;4970062;28;113408;-83
2023/10/22 05:01:03;;;;;;;3.73;1.80;;;15.80;96.50;;;13.63;60.16;97920.84;4979707;28;113523;-84
2023/10/22 05:03:30;;;;;;;5.30;1.70;;;15.20;96.20;;;13.62;60.14;97924.78;4967604;28;123813;-80
2023/10/22 05:06:03;;;;;;;4.20;1.60;;;15.40;96.20;;;13.61;60.07;97915.66;4986366;28;123199;-81
2023/10/22 05:08:29;;;;;;;3.23;1.53;;;13.40;95.20;;;13.58;60.17;97924.69;4968654;28;115179;-85
2023/10/22 05:10:56;;;;;;;1.50;1.20;;;15.20;96.00;;;13.57;60.19;97923.06;4971620;28;114738;-80
2023/10/22 05:13:22;;;;;;;2.40;1.60;;;13.30;95.20;;;13.56;60.13;97934.53;4967235;28;123987;-83
2023/10/22 05:15:54;;;;;;;3.00;1.20;;;13.80;95.50;;;13.54;60.00;97931.28;4975266;28;122880;-82
2023/10/22 05:18:21;;;;;;;2.80;1.30;;;13.30;95.20;;;13.52;60.12;97939.97;4967798;28;114357;-80
2023/10/22 05:20:48;;;;;;;3.70;1.27;;;13.30;95.20;;;13.50;60.06;97925.66;4960191;28;113543;-80
2023/10/22 05:23:15;;;;;;;2.23;1.50;;;14.70;95.80;;;13.50;60.14;97939.53;4965992;28;124743;-82
2023/10/22 05:25:41;;;;;;;3.50;1.70;;;15.40;96.00;;;13.50;60.05;97941.50;4967736;28;123640;-79
2023/10/22 05:28:08;;;;;;;1.43;1.20;;;13.70;95.30;;;13.51;59.90;97943.91;4967770;28;114163;-81
2023/10/22 05:30:34;;;;;;;1.97;1.37;;;13.30;95.00;;;13.52;59.95;97945.53;4967623;28;114158;-81
2023/10/22 05:33:01;;;;;;;2.27;1.27;;;16.50;96.40;;;13.51;59.64;97951.41;4966680;28;124091;-82
2023/10/22 05:35:28;;;;;;;3.33;1.60;;;14.10;95.30;;;13.55;59.72;97949.56;4968700;28;123588;-80
2023/10/22 05:37:54;;;;;;;2.10;1.50;;;13.20;94.90;;;13.56;59.51;97957.53;4971056;28;113813;-82
2023/10/22 05:40:20;;;;;;;2.53;1.67;;;14.30;95.30;;;13.58;59.38;97951.63;4979825;28;114108;-81
2023/10/22 05:42:47;;;;;;;2.23;1.47;;;13.40;95.00;;;13.59;59.28;97954.03;4972260;28;123517;-82
2023/10/22 05:45:14;;;;;;;3.23;1.37;;;13.30;94.80;;;13.57;59.25;97945.28;4957137;28;124298;-80
2023/10/22 05:47:43;;;;;;;3.20;1.53;;;13.30;94.70;;;13.57;58.99;97955.59;4959446;28;114241;-81
2023/10/22 05:50:10;;;;;;;2.20;1.20;;;14.40;95.10;;;13.55;58.89;97963.44;4956455;28;115804;-83
2023/10/22 05:52:37;;;;;;;2.13;1.20;;;13.30;94.60;;;13.51;58.93;97956.97;4954077;28;123853;-80
2023/10/22 05:55:04;;;;;;;4.67;2.00;;;14.50;95.00;;;13.50;58.74;97967.28;4965924;28;123129;-82
2023/10/22 05:57:31;;;;;;;1.50;1.10;;;13.20;94.40;;;13.48;58.72;97969.59;4959365;28;114964;-82
2023/10/22 05:59:58;;;;;;;3.93;1.40;;;13.20;94.30;;;13.46;58.45;97975.50;4964363;28;114643;-81
2023/10/22 06:02:26;;;;;;;4.80;1.53;;;13.20;94.20;;;13.46;58.45;97978.28;4951329;28;124149;-80
2023/10/22 06:04:53;;;;;;;2.20;1.10;;;14.50;94.70;;;13.43;58.29;97975.38;4987563;28;122817;-81
2023/10/22 06:07:19;;;;;;;4.93;1.27;;;14.00;94.30;;;13.41;57.84;97978.53;4966444;28;114289;-82
2023/10/22 06:09:47;;;;;;;3.00;1.30;;;13.40;94.00;;;13.42;57.83;97976.56;4966573;28;113762;-81
2023/10/22 06:12:14;;;;;;;6.23;1.07;;;14.60;94.40;;;13.43;57.53;97978.16;4963836;28;123965;-81
2023/10/22 06:14:40;;;;;;;2.90;1.40;;;13.20;93.80;;;13.46;57.54;97983.03;4967563;28;123645;-83
2023/10/22 06:17:07;;;;;;;3.23;1.27;;;15.60;94.80;;;13.50;57.23;97988.66;4969496;28;114349;-80
2023/10/22 06:19:34;;;;;;;7.23;1.50;;;13.80;93.90;;;13.53;57.24;97985.19;4962525;28;113513;-81
2023/10/22 06:22:00;;;;;;;3.07;1.20;;;15.60;94.60;;;13.58;57.06;97990.50;4940716;28;123046;-82
2023/10/22 06:24:26;;;;;;;3.63;1.10;;;13.30;93.60;;;13.63;56.90;97995.78;4956259;28;123829;-80
2023/10/22 06:26:55;;;;;;;2.77;1.13;;;13.30;93.50;;;13.69;56.76;98000.72;4961325;28;114320;-82
2023/10/22 06:29:22;;;;;;;2.30;1.30;;;13.30;93.40;;;13.76;56.51;98004.91;4961147;28;113327;-81
2023/10/22 06:31:48;;;;;;;2.30;1.00;;;13.40;93.40;;;13.81;56.42;98015.72;4953381;28;123228;-83
2023/10/22 06:34:15;;;;;;;4.27;1.60;;;13.40;93.30;;;13.86;56.47;98013.53;4959261;28;123802;-82
2023/10/22 06:36:41;;;;;;;2.40;1.40;;;13.50;93.30;;;13.91;56.49;98020.78;4958065;28;114693;-83
2023/10/22 06:39:08;;;;;;;1.90;1.20;;;14.20;93.60;;;13.97;56.19;98019.38;4964134;28;113972;-82
2023/10/22 06:41:34;;;;;;;2.13;1.20;;;13.60;93.20;;;14.03;56.07;98022.72;4959035;28;126780;-82
2023/10/22 06:44:01;;;;;;;2.83;1.30;;;15.30;93.90;;;14.09;55.93;98026.84;4960558;28;123890;-82
2023/10/22 06:46:33;;;;;;;3.60;1.10;;;15.30;93.80;;;14.13;55.74;98031.34;4953587;28;115120;-83
2023/10/22 06:48:59;;;;;;;2.30;1.23;;;13.80;93.10;;;14.18;55.83;98041.38;4952854;28;115473;-84
2023/10/22 06:51:26;;;;;;;4.07;1.30;;;15.00;93.60;;;14.24;55.61;98039.13;4950012;28;123881;-82
2023/10/22 06:53:52;;;;;;;1.90;1.30;;;13.90;93.00;;;14.31;55.60;98042.13;4956110;28;123977;-82
2023/10/22 06:56:19;;;;;;;4.83;1.80;;;13.90;93.00;;;14.36;55.54;98039.09;4954381;28;113322;-81
2023/10/22 06:58:46;;;;;;;5.53;1.37;;;15.20;93.50;;;14.42;55.35;98037.66;4960600;28;113869;-82
2023/10/22 07:01:15;;;;;;;3.77;1.53;;;16.20;93.90;;;14.51;55.06;98038.31;4959379;28;124098;-83
2023/10/22 07:03:46;;;;;;;1.77;1.20;;;14.10;92.80;;;14.55;55.15;98039.22;4957823;28;124976;-83
2023/10/22 07:06:13;;;;;;;3.90;1.20;;;14.10;92.80;;;14.62;54.83;98046.94;4961806;28;114214;-83
2023/10/22 07:08:40;;;;;;;3.00;1.27;;;15.40;93.30;;;14.68;55.04;98047.50;4955213;28;113996;-81
2023/10/22 07:11:06;;;;;;;2.63;1.30;;;15.30;93.10;;;14.76;54.56;98043.72;4957003;28;123329;-85
2023/10/22 07:13:32;;;;;;;2.83;1.43;;;15.20;93.00;;;14.82;54.59;98042.28;4953419;28;124840;-86
2023/10/22 07:15:59;;;;;;;4.73;1.20;;;14.30;92.60;;;14.88;54.20;98057.53;4967996;28;114219;-85
2023/10/22 07:18:26;;;;;;;2.93;1.30;;;14.40;92.50;;;14.90;53.98;98057.16;4971473;28;114977;-84
2023/10/22 07:20:52;;;;;;;3.20;1.33;;;14.40;92.40;;;14.91;53.92;98054.03;4968783;28;125239;-83
2023/10/22 07:23:19;;;;;;;3.57;1.17;;;14.50;92.30;;;14.94;54.12;98056.09;4968236;28;123977;-82
2023/10/22 07:25:46;;;;;;;3.67;1.20;;;14.50;92.20;;;14.99;53.88;98058.63;4968854;28;114125;-86
2023/10/22 07:28:15;;;;;;;1.80;1.27;;;14.50;92.20;;;15.06;54.09;98057.97;4969201;28;113855;-84
2023/10/22 07:30:48;;;;;;;1.93;1.00;;;14.60;92.20;;;15.10;53.77;98058.03;4969004;28;123414;-85
2023/10/22 07:33:16;;;;;;;3.50;1.37;;;14.70;92.10;;;15.14;53.46;98061.72;4967860;28;124129;-82
2023/10/22 07:36:00;;;;;;;3.47;1.40;;;14.60;92.00;;;15.17;53.40;98074.91;4987100;28;114646;-83
2023/10/22 07:38:32;;;;;;;1.80;1.33;;;14.70;91.90;;;15.23;53.40;98067.91;4967790;28;114979;-84
2023/10/22 07:41:01;;;;;;;3.63;1.17;;;14.80;91.90;;;15.29;53.26;98080.41;4967914;28;124522;-82
2023/10/22 07:43:29;;;;;;;4.60;1.20;;;14.80;91.80;;;15.35;52.99;98078.13;4954165;28;123269;-82
2023/10/22 07:46:02;;;;;;;7.17;1.60;;;14.90;91.70;;;15.40;52.55;98073.09;4966748;28;114316;-83
2023/10/22 07:48:28;;;;;;;3.63;1.63;;;14.90;91.60;;;15.42;52.20;98081.91;4951212;28;114229;-81
2023/10/22 07:50:57;;;;;;;2.10;1.30;;;15.00;91.30;;;15.43;51.97;98085.47;4958075;28;124126;-82
2023/10/22 07:53:23;;;;;;;3.20;1.40;;;16.00;91.60;;;15.45;51.79;98083.94;4987434;28;123665;-81
2023/10/22 07:55:50;;;;;;;2.30;1.50;;;15.00;91.00;;;15.50;51.79;98087.63;4961332;28;113662;-85
2023/10/22 07:58:16;;;;;;;4.40;1.70;;;15.10;91.10;;;15.54;51.72;98094.09;4951299;28;113751;-82
2023/10/22 08:00:43;;;;;;;3.03;1.40;;;15.10;91.00;;;15.61;51.81;98088.69;4979319;28;123605;-84
2023/10/22 08:03:09;;;;;;;4.13;1.87;;;15.20;91.00;;;15.67;51.66;98101.94;4958178;28;123909;-85
2023/10/22 08:05:38;;;;;;;3.10;1.57;;;15.20;90.90;;;15.72;51.22;98098.13;4952245;28;113578;-83
2023/10/22 08:08:06;;;;;;;1.63;1.10;;;15.30;90.70;;;15.73;50.98;98108.06;4970735;28;114463;-80
2023/10/22 08:10:33;;;;;;;3.00;1.10;;;15.30;90.50;;;15.76;50.85;98107.34;4952164;28;124532;-87
2023/10/22 08:13:00;;;;;;;2.93;1.60;;;15.30;90.50;;;15.80;50.99;98102.66;4956299;28;123866;-85
2023/10/22 08:15:26;;;;;;;3.13;1.10;;;15.30;90.40;;;15.85;50.85;98110.75;4949508;28;114302;-83
2023/10/22 08:17:56;;;;;;;3.67;1.50;;;15.40;90.40;;;15.88;50.65;98115.59;4968598;28;113138;-86
2023/10/22 08:20:28;;;;;;;1.87;1.30;;;15.60;90.50;;;15.93;50.71;98100.53;4967002;28;124716;-85
2023/10/22 08:23:00;;;;;;;2.23;1.10;;;16.90;91.00;;;15.99;50.56;98112.22;4968923;28;124525;-85
2023/10/22 08:25:27;;;;;;;2.80;1.40;;;15.50;90.20;;;16.03;50.47;98108.31;4969651;28;114960;-83
2023/10/22 08:27:55;;;;;;;4.03;1.53;;;15.60;90.20;;;16.05;50.02;98105.19;4977183;28;114978;-81
2023/10/22 08:30:22;;;;;;;2.80;1.47;;;15.60;89.90;;;16.08;50.03;98110.03;4982887;28;123589;-81
2023/10/22 08:32:48;;;;;;;2.10;1.60;;;17.60;90.80;;;16.12;50.28;98113.69;4967666;28;124030;-80
2023/10/22 08:35:15;;;;;;;5.13;1.50;;;15.70;90.00;;;16.18;50.08;98128.94;4967421;28;114240;-80
2023/10/22 08:37:44;;;;;;;2.90;1.17;;;15.70;89.80;;;16.20;49.92;98121.03;4967851;28;113940;-85
2023/10/22 08:40:13;;;;;;;4.30;1.30;;;15.80;89.50;;;16.19;49.52;98124.97;4969466;28;123302;-81
2023/10/22 08:42:44;;;;;;;3.00;1.20;;;15.80;88.90;;;16.20;49.20;98132.19;4968373;28;123555;-84
2023/10/22 08:45:11;;;;;;;4.27;1.47;;;15.80;89.30;;;16.21;48.99;98128.22;4969638;28;114359;-81
2023/10/22 08:47:39;;;;;;;4.57;1.90;;;15.80;88.30;;;16.25;49.07;98137.44;4969198;28;113783;-84
2023/10/22 08:50:10;;;;;;;4.13;1.63;;;15.80;88.00;;;16.29;48.95;98141.13;4967345;28;123984;-85
2023/10/22 08:52:36;;;;;;;5.87;1.30;;;15.80;88.00;;;16.32;48.62;98145.97;4970186;28;123769;-81
2023/10/22 08:55:04;;;;;;;7.40;1.40;;;15.90;87.70;;;16.32;48.50;98150.75;4966208;28;114206;-81
2023/10/22 08:57:31;;;;;;;2.00;1.20;;;15.90;87.10;;;16.32;48.34;98150.75;4966053;28;113956;-84
2023/10/22 08:59:57;;;;;;;1.60;1.20;;;15.90;87.00;;;16.31;48.14;98147.16;4967260;28;124383;-85
2023/10/22 09:02:28;;;;;;;3.10;1.50;;;15.90;86.70;;;16.33;48.29;98147.59;4967242;28;123634;-85
2023/10/22 09:04:55;;;;;;;2.00;1.27;;;16.00;86.80;;;16.37;48.01;98158.00;4953411;28;113615;-83
2023/10/22 09:07:58;;;;;;;3.50;1.27;;;15.90;86.70;;;16.35;48.14;98156.38;4968382;28;114083;-86
2023/10/22 09:10:31;;;;;;;4.57;1.57;;;16.00;86.30;;;16.41;48.02;98158.88;4963516;28;124016;-82
2023/10/22 09:13:20;;;;;;;2.90;1.30;;;16.00;86.40;;;16.44;47.94;98158.97;4943932;28;123630;-85
2023/10/22 09:15:49;;;;;;;2.60;1.20;;;16.10;86.40;;;16.48;47.69;98147.88;4959642;28;115561;-86
2023/10/22 09:18:17;;;;;;;3.43;1.33;;;16.10;85.90;;;16.49;47.76;98153.06;4963157;28;113939;-86
2023/10/22 09:20:45;;;;;;;1.40;1.00;;;16.20;85.90;;;16.53;47.63;98150.38;4964071;28;124086;-81
2023/10/22 09:23:15;;;;;;;2.43;1.20;;;16.10;85.80;;;16.57;47.50;98151.22;4966180;28;123666;-83
2023/10/22 09:25:44;;;;;;;5.40;1.40;;;16.20;85.70;;;16.60;47.40;98144.91;4960855;28;114640;-81
2023/10/22 09:28:20;;;;;;;2.80;1.13;;;16.20;85.20;;;16.61;47.56;98143.75;4950888;28;114055;-85
2023/10/22 09:31:05;;;;;;;8.57;1.70;;;16.20;85.50;;;16.63;47.50;98149.78;4962651;28;124501;-85
2023/10/22 09:33:38;;;;;;;2.77;1.40;;;16.30;85.20;;;16.66;47.58;98149.03;4957254;28;123707;-84
2023/10/22 09:36:10;;;;;;;2.23;1.10;;;16.30;85.40;;;16.69;47.24;98159.47;4951958;28;114942;-84
2023/10/22 09:38:43;;;;;;;2.20;1.20;;;16.30;85.10;;;16.69;47.13;98148.28;4968964;28;113607;-85
2023/10/22 09:41:29;;;;;;;4.03;1.43;;;16.30;84.60;;;16.69;47.06;98153.88;4960328;28;123656;-85
2023/10/22 09:44:00;;;;;;;3.20;1.57;;;16.30;84.60;;;16.72;47.07;98144.75;4960796;28;123504;-83
2023/10/22 09:46:36;;;;;;;6.70;1.43;;;16.30;84.60;;;16.75;46.95;98141.22;4986089;28;114368;-82
2023/10/22 09:49:03;;;;;;;8.50;1.60;;;16.40;84.50;;;16.78;46.88;98156.47;4961577;28;113470;-83
2023/10/22 09:51:34;;;;;;;2.80;1.30;;;16.40;84.40;;;16.81;46.64;98149.34;4986138;28;123396;-83
2023/10/22 09:54:05;;;;;;;1.50;1.00;;;16.40;84.20;;;16.84;46.81;98137.44;4957535;28;123784;-81
2023/10/22 09:56:39;;;;;;;2.30;1.30;;;16.40;84.10;;;16.88;46.87;98155.06;4990851;28;113387;-82
2023/10/22 09:59:12;;;;;;;6.23;1.97;;;16.50;84.40;;;16.94;46.50;98154.38;4982779;28;113760;-86
2023/10/22 10:01:39;;;;;;;3.67;1.40;;;16.50;83.60;;;16.99;46.62;98156.06;4965821;28;124149;-84
2023/10/22 10:04:06;;;;;;;3.97;1.63;;;16.90;84.10;;;17.04;46.28;98155.75;4956299;28;124313;-84
2023/10/22 10:06:35;;;;;;;3.13;1.40;;;16.60;83.50;;;17.10;46.04;98159.84;4950195;28;115249;-81
2023/10/22 10:09:03;;;;;;;2.70;1.27;;;16.60;83.20;;;17.16;45.75;98161.13;4985475;28;115581;-85
2023/10/22 10:11:31;;;;;;;2.30;1.40;;;16.70;83.10;;;17.23;45.78;98150.09;4963980;28;124132;-84
2023/10/22 10:13:58;;;;;;;7.23;1.40;;;16.70;82.90;;;17.29;45.86;98158.97;4952199;28;125822;-84
2023/10/22 10:16:28;;;;;;;4.10;1.03;;;16.80;83.70;;;17.38;45.09;98164.28;4967297;28;114560;-80